Time;durP1;ratioP1;P1;durP2;ratioP2;P2;SDS_P1;SDS_P2;PMS_P1;PMS_P2;Temp;Humidity;BMP_temperature;BMP_pressure;BME280_temperature;BME280_humidity;BME280_pressure;Samples;Min_cycle;Max_cycle;Signal;HPM_P1;HPM_P2
2022/07/05 00:00:15;;;;;;;2.05;0.75;;;13.50;99.90;;;;;;6252581;22;20474;-87
2022/07/05 00:02:41;;;;;;;0.60;0.50;;;13.50;99.90;;;;;;6254223;22;20020;-86
2022/07/05 00:05:07;;;;;;;1.30;0.57;;;13.50;99.90;;;;;;6248859;22;20026;-87
2022/07/05 00:07:32;;;;;;;1.83;1.00;;;13.50;99.90;;;;;;6253646;22;20016;-86
2022/07/05 00:09:58;;;;;;;1.00;0.70;;;13.50;99.90;;;;;;6260065;22;20019;-86
2022/07/05 00:12:32;;;;;;;1.00;0.50;;;13.50;99.90;;;;;;6250322;22;20493;-86
2022/07/05 00:15:01;;;;;;;1.10;0.63;;;13.50;99.90;;;;;;6249101;22;20016;-87
2022/07/05 00:17:27;;;;;;;1.17;0.50;;;13.50;99.90;;;;;;6223465;22;20015;-86
2022/07/05 00:19:52;;;;;;;1.65;0.50;;;13.50;99.90;;;;;;6276140;22;20012;-87
2022/07/05 00:22:18;;;;;;;1.08;0.65;;;13.50;99.90;;;;;;6248514;22;20354;-86
2022/07/05 00:24:44;;;;;;;0.85;0.50;;;13.50;99.90;;;;;;6249111;22;20460;-86
2022/07/05 00:27:10;;;;;;;0.90;0.50;;;13.50;99.90;;;;;;6248176;22;20020;-86
2022/07/05 00:29:36;;;;;;;1.00;0.50;;;13.50;99.90;;;;;;6248250;22;20020;-87
2022/07/05 00:32:02;;;;;;;0.40;0.30;;;13.50;99.90;;;;;;6248488;22;20020;-86
2022/07/05 00:34:27;;;;;;;1.40;0.43;;;13.50;99.90;;;;;;6248239;22;20020;-87
2022/07/05 00:36:53;;;;;;;0.38;0.30;;;13.60;99.90;;;;;;6276295;22;20023;-86
2022/07/05 00:39:19;;;;;;;2.25;0.70;;;13.60;99.90;;;;;;6248401;22;20012;-86
2022/07/05 00:41:45;;;;;;;1.67;0.80;;;13.60;99.90;;;;;;6250417;22;20015;-86
2022/07/05 00:44:14;;;;;;;0.93;0.50;;;13.60;99.90;;;;;;6250366;22;20387;-86
2022/07/05 00:46:41;;;;;;;0.95;0.50;;;13.60;99.90;;;;;;6277429;22;20031;-86
2022/07/05 00:49:07;;;;;;;0.60;0.30;;;13.60;99.90;;;;;;6277289;22;20019;-87
2022/07/05 00:51:36;;;;;;;0.70;0.30;;;13.90;99.90;;;;;;6250216;22;20023;-86
2022/07/05 00:54:05;;;;;;;1.27;0.57;;;13.70;99.90;;;;;;6277668;22;20023;-87
2022/07/05 00:56:30;;;;;;;0.52;0.30;;;13.70;99.90;;;;;;6277359;22;20082;-88
2022/07/05 00:58:56;;;;;;;0.60;0.40;;;13.80;99.90;;;;;;6250292;22;20058;-86
2022/07/05 01:01:22;;;;;;;0.52;0.38;;;13.70;99.90;;;;;;6249713;22;20016;-86
2022/07/05 01:03:48;;;;;;;0.95;0.45;;;13.70;99.90;;;;;;6277474;22;20019;-87
2022/07/05 01:06:17;;;;;;;1.80;0.50;;;13.70;99.90;;;;;;6224847;22;20102;-87
2022/07/05 01:08:45;;;;;;;1.15;0.45;;;13.70;99.90;;;;;;6250508;22;20458;-87
2022/07/05 01:11:13;;;;;;;0.60;0.40;;;13.70;99.90;;;;;;6250529;22;20094;-87
2022/07/05 01:13:39;;;;;;;1.83;0.40;;;13.70;99.90;;;;;;6277264;22;20083;-87
2022/07/05 01:16:05;;;;;;;1.60;0.40;;;13.70;99.90;;;;;;6249998;22;20054;-86
2022/07/05 01:18:32;;;;;;;1.02;0.60;;;13.70;99.90;;;;;;6277513;22;20015;-86
2022/07/05 01:20:59;;;;;;;1.00;0.60;;;13.70;99.90;;;;;;6250052;22;20393;-86
2022/07/05 01:23:30;;;;;;;1.13;0.80;;;13.70;99.90;;;;;;6249887;22;20051;-86
2022/07/05 01:25:58;;;;;;;2.25;0.63;;;13.70;99.90;;;;;;6277176;22;20019;-87
2022/07/05 01:28:24;;;;;;;2.20;0.73;;;14.60;99.90;;;;;;6249944;22;20088;-87
2022/07/05 01:30:51;;;;;;;2.03;0.60;;;13.70;99.90;;;;;;6249778;22;20015;-87
2022/07/05 01:33:17;;;;;;;2.28;0.70;;;13.70;99.90;;;;;;6277304;22;20051;-87
2022/07/05 01:35:43;;;;;;;0.70;0.43;;;13.60;99.90;;;;;;6277136;22;20011;-87
2022/07/05 01:38:11;;;;;;;1.08;0.60;;;13.60;99.90;;;;;;6277322;22;20054;-87
2022/07/05 01:40:37;;;;;;;1.70;0.55;;;13.70;99.90;;;;;;6250100;22;20338;-86
2022/07/05 01:43:04;;;;;;;0.77;0.50;;;13.60;99.90;;;;;;6277000;22;20016;-87
2022/07/05 01:45:41;;;;;;;1.08;0.77;;;13.60;99.90;;;;;;6249560;22;20453;-86
2022/07/05 01:48:10;;;;;;;1.30;0.70;;;13.50;99.90;;;;;;6277148;22;20016;-86
2022/07/05 01:50:47;;;;;;;0.63;0.50;;;13.50;99.90;;;;;;6249649;22;20023;-87
2022/07/05 01:53:19;;;;;;;0.85;0.50;;;13.40;99.90;;;;;;6249574;22;20027;-86
2022/07/05 01:55:49;;;;;;;0.70;0.47;;;13.40;99.90;;;;;;6250020;22;20068;-87
2022/07/05 01:58:15;;;;;;;0.70;0.50;;;13.40;99.90;;;;;;6249921;22;20031;-86
2022/07/05 02:00:49;;;;;;;1.02;0.52;;;13.50;99.90;;;;;;6276505;22;20095;-87
2022/07/05 02:03:16;;;;;;;0.75;0.60;;;13.40;99.90;;;;;;6249401;22;20023;-86
2022/07/05 02:05:43;;;;;;;0.70;0.50;;;13.50;99.90;;;;;;6249468;22;20046;-87
2022/07/05 02:08:10;;;;;;;1.00;0.60;;;13.40;99.90;;;;;;6249349;22;20457;-86
2022/07/05 02:10:37;;;;;;;0.90;0.47;;;13.40;99.90;;;;;;6249694;22;20342;-87
2022/07/05 02:13:06;;;;;;;0.93;0.63;;;13.30;99.90;;;;;;6249532;22;20019;-86
2022/07/05 02:15:37;;;;;;;0.80;0.50;;;13.20;99.90;;;;;;6276957;22;20090;-86
2022/07/05 02:18:04;;;;;;;2.90;0.70;;;13.20;99.90;;;;;;6276151;22;20513;-86
2022/07/05 02:20:31;;;;;;;0.98;0.50;;;13.20;99.90;;;;;;6276928;22;20090;-87
2022/07/05 02:22:57;;;;;;;0.95;0.70;;;13.20;99.90;;;;;;6249862;22;20098;-87
2022/07/05 02:25:24;;;;;;;0.95;0.70;;;13.10;99.90;;;;;;6276791;22;20019;-86
2022/07/05 02:27:52;;;;;;;1.17;0.70;;;13.10;99.90;;;;;;6249347;22;20024;-86
2022/07/05 02:30:18;;;;;;;1.65;0.73;;;13.40;99.90;;;;;;6249519;22;20015;-87
2022/07/05 02:32:44;;;;;;;1.30;0.70;;;13.00;99.90;;;;;;6249515;22;20074;-86
2022/07/05 02:35:11;;;;;;;1.33;0.70;;;13.20;99.90;;;;;;6249300;22;20071;-86
2022/07/05 02:37:39;;;;;;;1.00;0.70;;;13.00;99.90;;;;;;6249299;22;20080;-86
2022/07/05 02:40:07;;;;;;;0.93;0.63;;;12.90;99.90;;;;;;6276658;22;20019;-87
2022/07/05 02:42:33;;;;;;;1.10;0.68;;;12.90;99.90;;;;;;6276217;22;20026;-86
2022/07/05 02:44:58;;;;;;;0.93;0.52;;;12.90;99.90;;;;;;6276351;22;20016;-86
2022/07/05 02:47:24;;;;;;;1.65;0.68;;;12.80;99.90;;;;;;6276470;22;20098;-87
2022/07/05 02:49:51;;;;;;;1.45;0.70;;;12.90;99.90;;;;;;6276488;22;20036;-87
2022/07/05 02:52:17;;;;;;;0.88;0.60;;;12.80;99.90;;;;;;6276166;22;20089;-87
2022/07/05 02:54:43;;;;;;;1.02;0.80;;;12.80;99.90;;;;;;6249501;22;20015;-86
2022/07/05 02:57:09;;;;;;;1.27;0.70;;;13.00;99.90;;;;;;6249462;22;20334;-87
2022/07/05 02:59:34;;;;;;;1.30;0.80;;;12.80;99.90;;;;;;6248611;22;20101;-86
2022/07/05 03:02:00;;;;;;;1.35;0.70;;;12.80;99.90;;;;;;6248884;22;20016;-86
2022/07/05 03:04:26;;;;;;;5.65;0.73;;;12.80;99.90;;;;;;6248987;22;20012;-86
2022/07/05 03:06:52;;;;;;;1.27;0.70;;;12.80;99.90;;;;;;6275914;22;20016;-86
2022/07/05 03:09:17;;;;;;;1.05;0.80;;;12.80;99.90;;;;;;6248727;22;20021;-86
2022/07/05 03:11:43;;;;;;;2.83;1.13;;;12.80;99.90;;;;;;6248848;22;20124;-86
2022/07/05 03:14:09;;;;;;;0.60;0.60;;;12.70;99.90;;;;;;6275866;22;20027;-86
2022/07/05 03:16:35;;;;;;;3.05;0.95;;;13.10;99.90;;;;;;6248993;22;20450;-86
2022/07/05 03:19:00;;;;;;;1.42;0.80;;;12.70;99.90;;;;;;6248750;22;20020;-86
2022/07/05 03:21:26;;;;;;;0.93;0.70;;;13.10;99.90;;;;;;6224086;22;20051;-86
2022/07/05 03:23:52;;;;;;;0.80;0.50;;;13.50;99.90;;;;;;6224089;22;20023;-86
2022/07/05 03:26:18;;;;;;;1.30;0.60;;;12.70;99.90;;;;;;6249333;22;20346;-87
2022/07/05 03:28:43;;;;;;;1.15;0.68;;;12.70;99.90;;;;;;6277023;22;20023;-87
2022/07/05 03:31:09;;;;;;;0.98;0.70;;;12.80;99.90;;;;;;6251765;22;20007;-87
2022/07/05 03:33:35;;;;;;;1.80;0.60;;;12.60;99.90;;;;;;6286679;22;20019;-86
2022/07/05 03:36:00;;;;;;;1.70;0.75;;;12.60;99.90;;;;;;6249666;22;20023;-88
2022/07/05 03:38:26;;;;;;;0.98;0.80;;;12.60;99.90;;;;;;6252168;22;20008;-87
2022/07/05 03:40:52;;;;;;;1.15;0.90;;;12.40;99.90;;;;;;6258995;22;20413;-88
2022/07/05 03:43:18;;;;;;;1.73;0.80;;;12.60;99.90;;;;;;6254889;22;20016;-87
2022/07/05 03:45:44;;;;;;;1.05;0.80;;;12.60;99.90;;;;;;6248889;22;20019;-86
2022/07/05 03:48:09;;;;;;;2.40;0.95;;;12.60;99.90;;;;;;6249133;22;20510;-87
2022/07/05 03:50:35;;;;;;;1.00;0.80;;;12.60;99.90;;;;;;6248645;22;20023;-86
2022/07/05 03:53:01;;;;;;;1.73;1.00;;;12.60;99.90;;;;;;6248455;22;20026;-86
2022/07/05 03:55:27;;;;;;;1.60;0.88;;;12.60;99.90;;;;;;6249198;22;20081;-86
2022/07/05 03:57:52;;;;;;;1.88;1.17;;;12.60;99.90;;;;;;6248558;22;20027;-87
2022/07/05 04:00:18;;;;;;;1.50;0.80;;;12.60;99.90;;;;;;6248310;22;20023;-87
2022/07/05 04:02:44;;;;;;;4.15;1.63;;;12.60;99.90;;;;;;6275986;22;20046;-86
2022/07/05 04:05:10;;;;;;;1.65;1.20;;;12.70;99.90;;;;;;6223312;22;20393;-86
2022/07/05 04:08:07;;;;;;;;;;;;;;;;;;;;;
2022/07/05 04:10:33;;;;;;;2.75;1.00;;;12.80;99.90;;;;;;6242267;22;20018;-87
2022/07/05 04:12:59;;;;;;;1.45;0.85;;;13.20;99.90;;;;;;6276195;22;20055;-87
2022/07/05 04:15:25;;;;;;;1.58;0.70;;;13.00;99.90;;;;;;6276355;22;20020;-88
2022/07/05 04:17:56;;;;;;;1.77;0.70;;;12.90;99.90;;;;;;6250568;22;20077;-85
2022/07/05 04:20:24;;;;;;;1.38;0.70;;;13.00;99.90;;;;;;6250634;22;20070;-85
2022/07/05 04:22:51;;;;;;;1.98;0.90;;;13.00;99.90;;;;;;6250581;22;20447;-86
2022/07/05 04:25:17;;;;;;;0.90;0.50;;;13.10;99.90;;;;;;6277908;22;20012;-86
2022/07/05 04:27:52;;;;;;;1.13;0.70;;;13.10;99.90;;;;;;6250908;22;20449;-86
2022/07/05 04:30:20;;;;;;;3.70;0.67;;;13.10;99.90;;;;;;6250004;22;20012;-86
2022/07/05 04:32:46;;;;;;;1.23;0.80;;;13.20;99.90;;;;;;6277932;22;20015;-85
2022/07/05 04:35:13;;;;;;;2.35;0.70;;;13.40;99.90;;;;;;6277485;22;20142;-86
2022/07/05 04:37:39;;;;;;;1.08;0.70;;;13.20;99.90;;;;;;6249946;22;20011;-86
2022/07/05 04:40:08;;;;;;;1.80;0.70;;;13.20;99.90;;;;;;6250093;22;20027;-86
2022/07/05 04:42:34;;;;;;;0.70;0.60;;;13.20;99.90;;;;;;6250168;22;20069;-86
2022/07/05 04:45:00;;;;;;;0.93;0.68;;;13.30;99.90;;;;;;6250341;22;20020;-86
2022/07/05 04:47:26;;;;;;;0.98;0.60;;;13.30;99.90;;;;;;6277343;22;20019;-86
2022/07/05 04:49:53;;;;;;;1.00;0.70;;;13.30;99.90;;;;;;6277650;22;20443;-86
2022/07/05 04:52:19;;;;;;;1.23;0.70;;;13.30;99.90;;;;;;6250378;22;20034;-87
2022/07/05 04:54:45;;;;;;;1.50;0.70;;;13.40;99.90;;;;;;6250047;22;20023;-86
2022/07/05 04:57:10;;;;;;;2.30;1.25;;;13.50;99.90;;;;;;6277516;22;20016;-86
2022/07/05 04:59:36;;;;;;;1.30;0.80;;;13.60;99.90;;;;;;6277407;22;20057;-86
2022/07/05 05:02:02;;;;;;;1.00;0.75;;;13.70;99.90;;;;;;6245257;23;20020;-85
2022/07/05 05:04:28;;;;;;;1.17;0.77;;;13.60;99.90;;;;;;6244978;23;20398;-86
2022/07/05 05:06:54;;;;;;;0.90;0.60;;;13.80;99.90;;;;;;6244872;23;20016;-86
2022/07/05 05:09:20;;;;;;;1.17;0.50;;;13.90;99.90;;;;;;6246664;22;20009;-87
2022/07/05 05:11:46;;;;;;;1.23;0.70;;;14.00;99.90;;;;;;6244405;23;20028;-86
2022/07/05 05:14:12;;;;;;;1.20;0.70;;;14.10;99.90;;;;;;6246414;22;20435;-86
2022/07/05 05:16:38;;;;;;;1.48;0.60;;;14.20;99.90;;;;;;6246863;22;20020;-85
2022/07/05 05:19:04;;;;;;;4.30;0.80;;;14.30;99.90;;;;;;6246786;23;20020;-85
2022/07/05 05:21:29;;;;;;;2.45;0.63;;;14.40;99.90;;;;;;6246779;22;20015;-86
2022/07/05 05:23:55;;;;;;;2.47;0.60;;;14.50;99.90;;;;;;6247060;22;20012;-86
2022/07/05 05:26:21;;;;;;;1.65;0.73;;;14.60;99.90;;;;;;6244219;23;20024;-86
2022/07/05 05:28:47;;;;;;;0.70;0.50;;;14.70;99.90;;;;;;6244677;23;20327;-85
2022/07/05 05:31:12;;;;;;;3.38;0.90;;;14.80;99.90;;;;;;6246209;23;20422;-86
2022/07/05 05:33:41;;;;;;;0.73;0.60;;;14.90;99.90;;;;;;6244816;23;20059;-86
2022/07/05 05:36:07;;;;;;;0.77;0.55;;;15.10;99.90;;;;;;6246826;22;20019;-86
2022/07/05 05:38:32;;;;;;;1.80;0.55;;;15.20;99.90;;;;;;6246523;22;20052;-87
2022/07/05 05:40:58;;;;;;;1.33;0.50;;;15.20;99.90;;;;;;6246612;22;20016;-86
2022/07/05 05:43:24;;;;;;;1.83;0.50;;;15.20;99.90;;;;;;6244829;23;20020;-86
2022/07/05 05:45:50;;;;;;;0.82;0.30;;;15.30;99.90;;;;;;6244490;23;20056;-86
2022/07/05 05:48:16;;;;;;;0.93;0.43;;;15.50;99.90;;;;;;6246086;22;20530;-86
2022/07/05 05:50:41;;;;;;;0.93;0.52;;;15.60;99.90;;;;;;6219319;23;20059;-86
2022/07/05 05:53:08;;;;;;;1.42;0.57;;;15.70;99.90;;;;;;6245830;23;20035;-86
2022/07/05 05:55:34;;;;;;;0.52;0.40;;;16.00;99.90;;;;;;6244462;23;20016;-86
2022/07/05 05:58:36;;;;;;;;;;;;;;;;;;;;;
2022/07/05 06:01:04;;;;;;;1.30;0.60;;;16.10;99.90;;;;;;6238973;23;20059;-90
2022/07/05 06:03:41;;;;;;;1.85;0.50;;;16.30;99.90;;;;;;6218518;23;20564;-90
2022/07/05 06:30:37;;;;;;;0.65;0.20;;;17.80;99.90;;;;;;6283156;22;20076;-89
2022/07/05 06:33:12;;;;;;;1.23;0.38;;;18.00;99.90;;;;;;6249297;22;20024;-87
2022/07/05 06:35:43;;;;;;;0.98;0.20;;;18.10;99.90;;;;;;6249810;22;20020;-88
2022/07/05 08:22:38;;;;;;;1.75;0.30;;;21.70;99.90;;;;;;6180428;22;20020;-88
2022/07/05 08:25:05;;;;;;;1.73;0.20;;;21.70;99.90;;;;;;6036956;23;20027;-85
2022/07/05 08:32:10;;;;;;;3.20;0.22;;;21.40;99.90;;;;;;6244861;23;20015;-88
2022/07/05 08:34:42;;;;;;;0.88;0.15;;;21.20;99.90;;;;;;6245073;23;20020;-89
2022/07/05 08:37:10;;;;;;;0.57;0.20;;;21.10;99.90;;;;;;6218024;23;20020;-89
2022/07/05 08:39:59;;;;;;;3.72;0.20;;;21.00;99.90;;;;;;6218344;23;20019;-89
2022/07/05 08:43:06;;;;;;;1.60;0.20;;;20.80;99.90;;;;;;6093581;23;20014;-94
2022/07/05 08:45:33;;;;;;;1.13;0.30;;;21.00;99.90;;;;;;6036157;23;20353;-88
2022/07/05 08:48:19;;;;;;;2.35;0.30;;;21.00;99.90;;;;;;6012118;23;20426;-90
2022/07/05 08:51:53;;;;;;;;;;;;;;;;;;;;;
2022/07/05 08:54:21;;;;;;;2.13;0.40;;;21.20;99.90;;;;;;5899051;24;20013;-89
2022/07/05 08:56:49;;;;;;;2.38;0.20;;;21.40;99.90;;;;;;5901561;24;20069;-92
2022/07/05 08:59:15;;;;;;;0.45;0.30;;;21.50;99.90;;;;;;5900790;24;20013;-87
2022/07/05 09:01:44;;;;;;;0.45;0.10;;;21.50;99.90;;;;;;5901298;24;20133;-87
2022/07/05 09:04:30;;;;;;;0.40;0.10;;;21.50;99.90;;;;;;5131113;27;20379;-85
2022/07/05 09:07:04;;;;;;;2.72;0.28;;;21.70;99.90;;;;;;5112785;28;20055;-86
2022/07/05 09:09:32;;;;;;;1.83;0.20;;;21.70;99.90;;;;;;5112729;28;20120;-85
2022/07/05 09:11:59;;;;;;;1.45;0.15;;;21.60;99.90;;;;;;5130887;27;20506;-85
2022/07/05 09:14:26;;;;;;;1.80;0.20;;;21.60;99.90;;;;;;5130779;27;20079;-85
2022/07/05 09:16:52;;;;;;;1.67;0.20;;;21.70;99.90;;;;;;5112768;28;20042;-87
2022/07/05 09:19:18;;;;;;;2.08;0.20;;;21.70;99.90;;;;;;5112743;28;20039;-87
2022/07/05 09:21:44;;;;;;;1.42;0.10;;;21.70;99.90;;;;;;5130963;27;20039;-88
2022/07/05 09:24:12;;;;;;;1.42;0.40;;;21.80;99.90;;;;;;5130748;27;20050;-88
2022/07/05 09:26:47;;;;;;;1.35;0.17;;;21.80;99.90;;;;;;5130647;27;20050;-88
2022/07/05 09:29:18;;;;;;;1.65;0.20;;;21.80;99.90;;;;;;5130449;27;20101;-87
2022/07/05 09:31:48;;;;;;;0.60;0.20;;;21.90;99.90;;;;;;5130625;27;20035;-87
2022/07/05 09:34:16;;;;;;;1.42;0.20;;;21.90;99.90;;;;;;5130216;27;20040;-88
2022/07/05 09:36:57;;;;;;;3.17;0.30;;;21.90;99.90;;;;;;5112103;28;20499;-88
2022/07/05 09:39:32;;;;;;;1.77;0.20;;;21.90;99.90;;;;;;5111996;28;20134;-88
2022/07/05 09:42:14;;;;;;;2.13;0.40;;;21.90;99.90;;;;;;5112003;27;20047;-88
2022/07/05 09:44:48;;;;;;;1.77;0.20;;;21.90;99.90;;;;;;5111901;28;20123;-88
2022/07/05 09:47:16;;;;;;;2.30;0.20;;;21.60;99.90;;;;;;5111926;28;20050;-87
2022/07/05 09:49:50;;;;;;;2.92;0.30;;;21.50;99.90;;;;;;5130266;27;20126;-87
2022/07/05 09:52:45;;;;;;;1.65;0.32;;;21.60;99.90;;;;;;5130121;27;20407;-88
2022/07/05 09:55:13;;;;;;;3.45;0.22;;;21.70;99.90;;;;;;5030187;28;20093;-87
2022/07/05 09:57:41;;;;;;;2.60;0.20;;;21.70;99.90;;;;;;5046874;28;20124;-87
2022/07/05 10:00:15;;;;;;;0.77;0.30;;;21.70;99.90;;;;;;5046887;28;20049;-87
2022/07/05 10:02:45;;;;;;;4.18;0.40;;;21.50;99.90;;;;;;5029969;28;20476;-87
2022/07/05 10:05:23;;;;;;;2.05;0.20;;;21.40;99.90;;;;;;5030241;28;20088;-88
2022/07/05 10:08:00;;;;;;;1.25;0.32;;;21.30;99.90;;;;;;5046794;28;20045;-87
2022/07/05 10:10:30;;;;;;;0.90;0.20;;;21.40;99.90;;;;;;5030124;28;20447;-87
2022/07/05 10:13:01;;;;;;;0.75;0.15;;;21.00;99.90;;;;;;5030050;28;20148;-87
2022/07/05 10:15:35;;;;;;;4.03;0.22;;;20.90;99.90;;;;;;5018423;28;20485;-86
2022/07/05 10:18:03;;;;;;;1.02;0.20;;;21.00;99.90;;;;;;5033169;28;20222;-88
2022/07/05 10:20:36;;;;;;;1.63;0.22;;;20.90;99.90;;;;;;5016672;28;20084;-88
2022/07/05 10:23:03;;;;;;;1.05;0.20;;;21.00;99.90;;;;;;5015822;28;20096;-87
2022/07/05 10:25:29;;;;;;;0.60;0.10;;;21.00;99.40;;;;;;5033513;28;20494;-88
2022/07/05 10:27:56;;;;;;;1.67;0.10;;;21.10;99.90;;;;;;5032793;28;20132;-88
2022/07/05 10:30:25;;;;;;;1.38;0.40;;;21.10;99.90;;;;;;5033439;28;20042;-88
2022/07/05 10:32:55;;;;;;;0.88;0.20;;;21.10;99.40;;;;;;5097423;28;20130;-91
2022/07/05 10:35:21;;;;;;;2.15;0.20;;;21.10;99.30;;;;;;5123753;28;20052;-85
2022/07/05 10:37:48;;;;;;;1.38;0.20;;;21.10;99.60;;;;;;5099745;22;20071;-88
2022/07/05 10:40:15;;;;;;;0.43;0.10;;;21.10;99.90;;;;;;5058170;28;20085;-87
2022/07/05 10:42:44;;;;;;;0.13;0.10;;;21.00;99.90;;;;;;5084747;28;20048;-88
2022/07/05 10:45:32;;;;;;;2.30;0.47;;;21.10;99.90;;;;;;5064735;28;20101;-89
2022/07/05 10:48:14;;;;;;;0.88;0.20;;;21.30;99.80;;;;;;5041585;28;20051;-90
2022/07/05 10:50:58;;;;;;;0.82;0.20;;;21.80;99.90;;;;;;5057426;28;20045;-93
2022/07/05 10:53:37;;;;;;;0.30;0.10;;;22.30;99.50;;;;;;5056952;28;20072;-89
2022/07/05 10:56:03;;;;;;;0.20;0.13;;;22.70;97.80;;;;;;5057353;28;20504;-88
2022/07/05 10:58:39;;;;;;;0.38;0.20;;;22.60;96.40;;;;;;5056157;28;20079;-87
2022/07/05 11:01:20;;;;;;;0.30;0.10;;;22.50;97.70;;;;;;5074514;28;20056;-87
2022/07/05 11:04:04;;;;;;;1.88;0.30;;;22.70;99.20;;;;;;5056583;28;20048;-94
2022/07/05 11:06:38;;;;;;;0.57;0.20;;;22.80;98.00;;;;;;5056591;28;20079;-88
2022/07/05 11:09:08;;;;;;;1.77;0.20;;;22.90;97.40;;;;;;5056443;28;20045;-89
2022/07/05 11:11:39;;;;;;;2.58;0.30;;;22.80;97.10;;;;;;5056540;28;20081;-85
2022/07/05 11:17:46;;;;;;;1.38;0.20;;;22.40;97.80;;;;;;5074235;28;20066;-86
2022/07/05 11:20:25;;;;;;;3.03;0.28;;;22.00;99.10;;;;;;5054960;28;20504;-87
2022/07/05 11:23:02;;;;;;;4.28;0.30;;;22.00;97.80;;;;;;5051130;28;20044;-87
2022/07/05 11:25:31;;;;;;;0.70;0.10;;;21.70;98.90;;;;;;5054387;28;20056;-87
2022/07/05 11:28:08;;;;;;;0.63;0.20;;;21.60;98.80;;;;;;5088460;28;20036;-86
2022/07/05 11:30:48;;;;;;;1.52;0.30;;;21.50;99.00;;;;;;5074076;28;20044;-87
2022/07/05 11:33:38;;;;;;;1.30;0.22;;;21.70;98.20;;;;;;5055554;28;20072;-86
2022/07/05 11:36:06;;;;;;;0.60;0.20;;;21.30;98.70;;;;;;5055819;28;20049;-87
2022/07/05 11:38:32;;;;;;;3.10;0.30;;;21.30;98.70;;;;;;5055551;28;20061;-86
2022/07/05 11:41:12;;;;;;;0.63;0.20;;;21.10;99.80;;;;;;5073097;28;20037;-86
2022/07/05 11:43:38;;;;;;;1.33;0.20;;;20.80;99.90;;;;;;5052073;28;20048;-87
2022/07/05 11:46:04;;;;;;;2.38;0.20;;;20.80;99.90;;;;;;5088982;28;20080;-87
2022/07/05 11:48:30;;;;;;;0.40;0.10;;;20.70;99.90;;;;;;5059214;28;20072;-88
2022/07/05 11:50:56;;;;;;;1.23;0.20;;;20.60;99.90;;;;;;5055649;28;20481;-87
2022/07/05 11:53:30;;;;;;;3.65;0.45;;;20.40;99.90;;;;;;5055286;28;20127;-87
2022/07/05 11:56:00;;;;;;;1.95;0.20;;;20.30;99.90;;;;;;5073540;28;20086;-87
2022/07/05 11:58:32;;;;;;;1.00;0.20;;;20.10;99.90;;;;;;5055113;28;20052;-87
2022/07/05 12:00:59;;;;;;;0.85;0.30;;;20.10;99.90;;;;;;5072080;28;20040;-86
2022/07/05 12:03:25;;;;;;;2.10;0.30;;;20.10;99.90;;;;;;5054680;28;20445;-86
2022/07/05 12:05:52;;;;;;;3.13;0.30;;;20.00;99.90;;;;;;5055412;28;20127;-87
2022/07/05 12:08:25;;;;;;;2.30;0.30;;;20.00;99.90;;;;;;5073091;28;20473;-85
2022/07/05 12:13:49;;;;;;;2.00;0.30;;;19.70;99.90;;;;;;5054986;28;20083;-86
2022/07/05 12:16:15;;;;;;;2.70;0.30;;;19.60;99.90;;;;;;5055351;28;20043;-88
2022/07/05 12:18:49;;;;;;;5.90;0.30;;;19.40;99.90;;;;;;5072422;28;20086;-85
2022/07/05 12:21:15;;;;;;;1.40;0.20;;;19.40;99.90;;;;;;5072372;28;20040;-85
2022/07/05 12:23:44;;;;;;;1.95;0.20;;;19.50;99.90;;;;;;5072672;28;20098;-85
2022/07/05 12:26:15;;;;;;;3.13;0.10;;;19.30;99.90;;;;;;5072896;28;20074;-85
2022/07/05 12:28:42;;;;;;;0.98;0.30;;;19.50;99.90;;;;;;5072669;28;20056;-85
2022/07/05 12:31:18;;;;;;;3.58;0.25;;;19.50;99.90;;;;;;5053619;28;20032;-89
2022/07/05 12:33:44;;;;;;;2.35;0.30;;;19.50;99.90;;;;;;5072580;28;20044;-87
2022/07/05 12:36:14;;;;;;;1.73;0.20;;;19.50;99.90;;;;;;5072620;28;20052;-86
2022/07/05 12:38:41;;;;;;;1.27;0.32;;;19.50;99.90;;;;;;5072687;28;20053;-85
2022/07/05 12:41:07;;;;;;;0.65;0.20;;;19.60;99.90;;;;;;5071945;28;20036;-86
2022/07/05 12:43:33;;;;;;;0.52;0.20;;;19.70;99.90;;;;;;5072598;28;20059;-86
2022/07/05 12:46:02;;;;;;;1.05;0.20;;;20.00;99.70;;;;;;5054955;28;20123;-86
2022/07/05 12:48:38;;;;;;;0.50;0.25;;;20.20;99.10;;;;;;5072454;28;20101;-86
2022/07/05 12:51:07;;;;;;;0.60;0.30;;;20.30;99.90;;;;;;5038428;28;20037;-86
2022/07/05 12:59:09;;;;;;;1.45;0.20;;;20.40;98.10;;;;;;5072356;28;20493;-86
2022/07/05 13:01:43;;;;;;;0.52;0.20;;;20.40;99.70;;;;;;5072592;28;20052;-87
2022/07/05 13:04:14;;;;;;;0.93;0.20;;;20.50;99.90;;;;;;5072373;28;20507;-87
2022/07/05 13:06:58;;;;;;;1.33;0.20;;;20.80;98.10;;;;;;5054458;28;20040;-86
2022/07/05 13:09:31;;;;;;;0.57;0.20;;;20.70;99.70;;;;;;5054478;28;20056;-86
2022/07/05 13:12:12;;;;;;;1.15;0.15;;;20.80;98.90;;;;;;5054767;28;20379;-87
2022/07/05 13:14:46;;;;;;;0.90;0.20;;;20.80;98.70;;;;;;5054493;28;20044;-87
2022/07/05 13:17:13;;;;;;;0.77;0.25;;;20.50;99.70;;;;;;5072113;28;20040;-85
2022/07/05 13:19:41;;;;;;;0.65;0.20;;;20.50;99.40;;;;;;5054722;28;20133;-86
2022/07/05 13:22:07;;;;;;;1.33;0.20;;;20.30;99.30;;;;;;5054367;28;20124;-86
2022/07/05 13:24:34;;;;;;;0.80;0.20;;;20.30;99.10;;;;;;5054672;28;20053;-86
2022/07/05 13:27:00;;;;;;;2.50;0.55;;;20.40;99.40;;;;;;5054660;28;20045;-86
2022/07/05 13:29:26;;;;;;;0.90;0.25;;;20.50;99.50;;;;;;5054137;28;20048;-86
2022/07/05 13:31:52;;;;;;;1.83;0.30;;;20.70;99.10;;;;;;5054843;28;20507;-86
2022/07/05 13:34:18;;;;;;;0.88;0.20;;;20.90;99.20;;;;;;5072148;28;20040;-86
2022/07/05 13:36:44;;;;;;;0.30;0.10;;;20.90;99.00;;;;;;5072025;28;20135;-86
2022/07/05 13:39:11;;;;;;;1.77;0.28;;;21.10;99.30;;;;;;5072024;28;20478;-86
2022/07/05 13:41:37;;;;;;;0.90;0.20;;;21.20;98.90;;;;;;5037766;28;20087;-87
2022/07/05 13:44:03;;;;;;;3.30;0.20;;;21.30;98.20;;;;;;5054389;28;20087;-86
2022/07/05 13:46:29;;;;;;;0.68;0.40;;;21.40;96.60;;;;;;5072295;28;20110;-86
2022/07/05 13:48:55;;;;;;;1.30;0.20;;;21.10;97.00;;;;;;5054446;28;20544;-86
2022/07/05 13:51:20;;;;;;;1.17;0.13;;;21.20;98.70;;;;;;5058063;28;20473;-86
2022/07/05 13:53:46;;;;;;;0.60;0.10;;;21.50;98.10;;;;;;5057816;28;20056;-86
2022/07/05 13:56:12;;;;;;;1.70;0.30;;;21.90;97.50;;;;;;5057535;28;20052;-87
2022/07/05 13:58:38;;;;;;;0.65;0.20;;;22.40;97.10;;;;;;5058038;28;20040;-86
2022/07/05 14:01:04;;;;;;;2.15;0.28;;;22.70;97.30;;;;;;5057819;28;20134;-87
2022/07/05 14:03:30;;;;;;;0.93;0.30;;;22.90;97.70;;;;;;5058373;28;20131;-86
2022/07/05 14:05:56;;;;;;;0.20;0.10;;;23.00;97.50;;;;;;5061290;28;20504;-86
2022/07/05 14:08:22;;;;;;;0.95;0.28;;;22.80;96.70;;;;;;5060338;28;20095;-86
2022/07/05 14:10:52;;;;;;;1.45;0.20;;;22.80;95.00;;;;;;5075613;28;20044;-87
2022/07/05 14:13:22;;;;;;;0.25;0.20;;;22.90;93.90;;;;;;5060747;28;20052;-86
2022/07/05 14:15:49;;;;;;;2.38;0.20;;;22.60;95.60;;;;;;5079647;28;20052;-87
2022/07/05 14:18:15;;;;;;;1.52;0.63;;;22.40;95.70;;;;;;5057732;28;20045;-86
2022/07/05 14:20:42;;;;;;;2.67;0.30;;;22.30;95.80;;;;;;5075512;28;20199;-86
2022/07/05 14:23:08;;;;;;;1.95;0.20;;;22.10;94.40;;;;;;5056899;28;20082;-86
2022/07/05 14:25:35;;;;;;;1.30;0.30;;;21.90;95.30;;;;;;5075408;28;20041;-86
2022/07/05 14:28:00;;;;;;;1.67;0.20;;;21.90;95.80;;;;;;5057498;28;20041;-86
2022/07/05 14:30:27;;;;;;;1.70;0.30;;;21.90;96.20;;;;;;5057465;28;20517;-86
2022/07/05 14:32:54;;;;;;;1.38;0.20;;;22.00;94.60;;;;;;5075146;28;20052;-86
2022/07/05 14:35:20;;;;;;;0.65;0.20;;;22.30;94.10;;;;;;5074875;28;20036;-87
2022/07/05 14:37:46;;;;;;;1.75;0.40;;;22.10;94.50;;;;;;5056715;28;20060;-86
2022/07/05 14:40:12;;;;;;;0.70;0.20;;;22.20;92.60;;;;;;5074851;28;20074;-86
2022/07/05 14:42:38;;;;;;;1.55;0.20;;;21.70;94.10;;;;;;5057253;28;20041;-87
2022/07/05 14:45:04;;;;;;;0.65;0.10;;;21.50;94.70;;;;;;5056874;28;20051;-86
2022/07/05 14:47:30;;;;;;;5.00;0.20;;;21.60;93.70;;;;;;5057090;28;20101;-86
2022/07/05 14:49:55;;;;;;;1.80;0.30;;;21.90;94.40;;;;;;5074952;28;20132;-85
2022/07/05 14:52:21;;;;;;;1.13;0.50;;;22.00;93.90;;;;;;5074694;28;20112;-86
2022/07/05 14:54:47;;;;;;;0.50;0.10;;;22.30;93.50;;;;;;5056494;28;20055;-87
2022/07/05 14:57:13;;;;;;;2.92;0.40;;;21.90;93.90;;;;;;5074987;28;20040;-86
2022/07/05 14:59:39;;;;;;;1.20;0.20;;;21.50;94.60;;;;;;5074771;28;20037;-86
2022/07/05 15:02:06;;;;;;;2.25;0.30;;;21.40;94.70;;;;;;5056956;28;20468;-86
2022/07/05 15:04:32;;;;;;;3.17;0.20;;;21.00;95.30;;;;;;5056488;28;20063;-87
2022/07/05 15:06:58;;;;;;;2.28;0.20;;;20.70;95.70;;;;;;5056427;28;20053;-86
2022/07/05 15:09:23;;;;;;;2.92;0.25;;;20.80;96.10;;;;;;5074316;28;20040;-87
2022/07/05 15:11:49;;;;;;;0.35;0.20;;;20.80;97.00;;;;;;5056682;28;20087;-86
2022/07/05 15:14:15;;;;;;;0.60;0.20;;;21.00;96.10;;;;;;5074571;28;20455;-87
2022/07/05 15:16:41;;;;;;;1.48;0.30;;;21.00;96.50;;;;;;5074482;28;20546;-87
2022/07/05 15:19:09;;;;;;;0.50;0.10;;;21.00;96.50;;;;;;5056396;28;20044;-86
2022/07/05 15:21:35;;;;;;;9.35;1.08;;;21.00;95.60;;;;;;5073961;28;20387;-86
2022/07/05 15:24:01;;;;;;;2.63;0.55;;;21.00;95.90;;;;;;5056066;28;20044;-84